Time;durP1;ratioP1;P1;durP2;ratioP2;P2;SDS_P1;SDS_P2;PMS_P1;PMS_P2;Temp;Humidity;BMP_temperature;BMP_pressure;BME280_temperature;BME280_humidity;BME280_pressure;Samples;Min_cycle;Max_cycle;Signal;HPM_P1;HPM_P2
2022/10/18 00:00:35;;;;;;;4.70;3.45;;;;;;;17.07;62.51;103041.63;5127625;27;20083;-83
2022/10/18 00:03:00;;;;;;;6.00;3.80;;;;;;;17.33;62.67;103089.00;5133878;27;20508;-83
2022/10/18 00:05:26;;;;;;;6.07;4.00;;;;;;;17.22;63.02;103083.03;5131671;27;20062;-83
2022/10/18 00:07:51;;;;;;;5.90;3.90;;;;;;;17.26;62.96;103082.41;5127730;27;20515;-84
2022/10/18 00:10:17;;;;;;;5.45;3.75;;;;;;;17.09;62.87;103047.00;5132093;27;20494;-85
2022/10/18 00:12:43;;;;;;;5.55;3.75;;;;;;;17.30;62.78;103079.16;5133067;27;20035;-84
2022/10/18 00:15:10;;;;;;;7.22;4.10;;;;;;;17.29;62.64;103086.16;5133668;27;20038;-84
2022/10/18 00:17:37;;;;;;;5.10;3.55;;;;;;;17.02;63.00;103050.09;5131306;27;20042;-84
2022/10/18 00:20:04;;;;;;;6.22;3.95;;;;;;;17.24;62.61;103073.47;5126756;27;20177;-84
2022/10/18 00:22:29;;;;;;;4.15;3.28;;;;;;;17.28;62.38;103071.13;5127035;27;20027;-83
2022/10/18 00:24:55;;;;;;;5.70;3.85;;;;;;;17.30;62.47;103069.50;5119660;27;20033;-83
2022/10/18 00:27:21;;;;;;;5.22;3.75;;;;;;;17.20;62.69;103053.88;5117575;27;20199;-83
2022/10/18 00:29:46;;;;;;;6.07;3.85;;;;;;;17.07;62.61;103028.41;5133427;27;20027;-83
2022/10/18 00:32:12;;;;;;;4.93;3.75;;;;;;;16.86;62.48;102998.03;5132381;27;20111;-83
2022/10/18 00:34:39;;;;;;;5.93;3.88;;;;;;;17.14;62.72;103042.00;5121491;27;20495;-83
2022/10/18 00:37:05;;;;;;;4.97;3.78;;;;;;;17.15;62.74;103049.13;5130463;27;20083;-83
2022/10/18 00:39:31;;;;;;;4.55;3.75;;;;;;;17.13;62.66;103037.56;5126529;27;20027;-83
2022/10/18 00:41:57;;;;;;;4.18;3.22;;;;;;;17.12;62.90;103035.72;5126182;27;20061;-83
2022/10/18 00:44:25;;;;;;;5.25;3.80;;;;;;;17.25;62.58;103049.81;5130245;27;20027;-84
2022/10/18 00:46:52;;;;;;;5.18;3.90;;;;;;;17.24;62.60;103039.16;5133274;27;20023;-83
2022/10/18 00:49:20;;;;;;;6.72;3.83;;;;;;;17.08;62.58;103031.97;5129188;27;20026;-83
2022/10/18 00:52:08;;;;;;;4.82;4.00;;;;;;;17.16;62.36;103025.44;5110868;27;20039;-83
2022/10/18 00:54:36;;;;;;;4.53;3.67;;;;;;;17.13;62.90;103046.38;5116939;27;20461;-82
2022/10/18 00:57:02;;;;;;;6.13;4.20;;;;;;;17.18;62.80;103041.41;5146637;27;20090;-82
2022/10/18 00:59:28;;;;;;;5.82;4.15;;;;;;;16.94;62.68;103007.34;5102894;27;20027;-82
2022/10/18 01:01:53;;;;;;;5.35;4.13;;;;;;;17.20;62.55;103029.19;5122661;27;20063;-83
2022/10/18 01:04:20;;;;;;;6.35;4.28;;;;;;;17.08;62.42;103006.50;5129642;27;20561;-84
2022/10/18 01:06:56;;;;;;;;;;;;;;;17.22;62.38;103028.47;5120518;27;20031;-85
2022/10/18 01:09:27;;;;;;;6.45;4.20;;;;;;;17.20;62.69;103023.91;5124044;27;20360;-83
2022/10/18 01:11:59;;;;;;;5.20;4.30;;;;;;;17.21;62.46;103029.31;5120358;27;20122;-84
2022/10/18 01:14:54;;;;;;;8.15;4.43;;;;;;;17.23;61.91;103019.75;5119885;27;20032;-83
2022/10/18 01:17:47;;;;;;;6.05;4.40;;;;;;;17.24;61.85;103020.66;5116558;27;20500;-82
2022/10/18 01:20:30;;;;;;;5.45;4.18;;;;;;;17.24;62.15;103015.38;5097293;27;20049;-83
2022/10/18 01:23:11;;;;;;;7.50;4.50;;;;;;;17.16;62.20;103006.06;5129356;27;20488;-83
2022/10/18 01:25:58;;;;;;;5.70;4.18;;;;;;;17.20;62.36;103018.66;5129730;27;20035;-82
2022/10/18 01:28:43;;;;;;;;;;;;;;;17.18;62.42;103012.34;5145717;27;20035;-83
2022/10/18 01:31:15;;;;;;;7.15;4.20;;;;;;;17.11;62.33;103005.78;5131825;27;20021;-82
2022/10/18 01:33:49;;;;;;;5.35;4.32;;;;;;;17.08;62.66;102997.66;5122452;27;20023;-83
2022/10/18 01:36:30;;;;;;;7.47;4.40;;;;;;;17.15;62.55;103013.06;5112166;27;20044;-83
2022/10/18 01:38:57;;;;;;;6.03;4.25;;;;;;;17.04;62.73;102999.19;5118449;27;20045;-82
2022/10/18 01:41:27;;;;;;;5.75;4.45;;;;;;;17.13;62.50;103005.88;5121499;27;20043;-84
2022/10/18 01:43:56;;;;;;;6.70;4.85;;;;;;;17.07;62.57;103002.00;5122645;27;20035;-82
2022/10/18 01:46:23;;;;;;;6.38;4.35;;;;;;;16.94;62.64;102970.38;5126095;27;20026;-82
2022/10/18 01:48:50;;;;;;;5.03;4.10;;;;;;;17.02;62.74;102998.19;5106162;28;20043;-82
2022/10/18 01:51:26;;;;;;;4.88;3.88;;;;;;;17.09;62.78;103005.66;5129511;27;20099;-81
2022/10/18 01:53:52;;;;;;;6.80;4.40;;;;;;;16.88;62.84;102978.81;5126459;27;20044;-82
2022/10/18 01:56:28;;;;;;;6.68;4.95;;;;;;;16.91;63.04;102980.72;5098259;27;20023;-83
2022/10/18 01:58:57;;;;;;;7.00;4.40;;;;;;;17.04;62.86;102999.19;5128878;27;20171;-83
2022/10/18 02:01:32;;;;;;;8.32;5.03;;;;;;;17.03;62.81;103000.00;5126623;27;20032;-84
2022/10/18 02:04:06;;;;;;;7.05;5.05;;;;;;;17.03;62.67;102994.72;5123670;27;20051;-84
2022/10/18 02:06:37;;;;;;;7.57;5.07;;;;;;;16.73;62.42;102934.69;5132290;27;20023;-87
2022/10/18 02:09:18;;;;;;;6.20;4.65;;;;;;;16.80;62.77;102956.31;5125277;27;20024;-84
2022/10/18 02:11:47;;;;;;;5.90;4.43;;;;;;;17.03;62.71;102999.09;5120875;27;20140;-83
2022/10/18 02:14:14;;;;;;;8.90;5.00;;;;;;;16.78;62.54;102949.97;5144912;27;20030;-86
2022/10/18 02:17:10;;;;;;;5.95;4.70;;;;;;;17.05;62.65;102994.81;5150359;27;20022;-83
2022/10/18 02:19:43;;;;;;;6.70;4.43;;;;;;;17.04;62.60;102993.91;5099479;27;20082;-83
2022/10/18 02:22:10;;;;;;;7.97;4.60;;;;;;;17.03;62.80;102989.44;5126126;27;20027;-82
2022/10/18 02:24:43;;;;;;;5.55;4.18;;;;;;;16.92;62.87;102976.41;5124280;27;20027;-82
2022/10/18 02:27:09;;;;;;;6.53;4.40;;;;;;;17.00;62.47;102978.69;5118039;27;20633;-83
2022/10/18 02:29:34;;;;;;;5.70;4.30;;;;;;;16.89;62.48;102954.28;5123969;27;20027;-84
2022/10/18 02:32:11;;;;;;;5.47;4.22;;;;;;;16.96;62.46;102973.13;5122615;27;20584;-83
2022/10/18 02:35:04;;;;;;;6.30;4.85;;;;;;;16.96;62.56;102971.41;5113429;27;20627;-83
2022/10/18 02:37:34;;;;;;;7.20;4.70;;;;;;;17.16;62.05;102979.66;5112729;27;20028;-83
2022/10/18 02:40:00;;;;;;;8.02;4.90;;;;;;;17.15;61.85;102977.84;5126651;27;20027;-82
2022/10/18 02:42:32;;;;;;;5.72;4.53;;;;;;;16.98;62.13;102961.84;5124112;27;20031;-83
2022/10/18 02:44:58;;;;;;;6.63;4.18;;;;;;;16.92;62.70;102969.38;5121948;27;20027;-82
2022/10/18 02:47:23;;;;;;;8.90;4.95;;;;;;;17.01;62.52;102984.88;5118199;27;20035;-83
2022/10/18 02:49:49;;;;;;;6.05;4.60;;;;;;;16.95;62.61;102980.13;5120101;27;20034;-82
2022/10/18 02:52:14;;;;;;;6.90;4.60;;;;;;;16.96;62.49;102981.97;5125457;27;20639;-83
2022/10/18 02:54:40;;;;;;;7.78;4.60;;;;;;;16.54;62.33;102907.13;5121894;27;20038;-82
2022/10/18 02:57:05;;;;;;;6.13;4.28;;;;;;;16.93;62.57;102971.19;5120227;27;20027;-83
2022/10/18 02:59:31;;;;;;;5.78;4.43;;;;;;;16.97;62.91;102982.88;5125840;28;20031;-84
2022/10/18 03:01:57;;;;;;;5.45;4.15;;;;;;;16.99;62.57;102970.69;5122288;28;20420;-84
2022/10/18 03:04:22;;;;;;;5.53;4.40;;;;;;;16.80;62.56;102951.03;5129566;27;20062;-84
2022/10/18 03:06:48;;;;;;;5.70;4.38;;;;;;;16.99;62.05;102976.84;5125561;28;20023;-84
2022/10/18 03:09:13;;;;;;;5.20;4.20;;;;;;;16.76;62.75;102945.44;5128357;28;20091;-85
2022/10/18 03:11:39;;;;;;;6.10;4.28;;;;;;;17.02;62.45;102984.09;5126651;28;20035;-84
2022/10/18 03:14:04;;;;;;;6.13;4.35;;;;;;;16.76;62.42;102941.06;5124980;28;20027;-84
2022/10/18 03:16:30;;;;;;;5.43;3.83;;;;;;;16.91;62.55;102964.91;5122136;27;20049;-85
2022/10/18 03:18:56;;;;;;;5.93;4.00;;;;;;;16.97;62.63;102981.13;5123848;27;20028;-85
2022/10/18 03:21:22;;;;;;;4.32;3.92;;;;;;;16.84;62.46;102949.50;5122553;27;20031;-84
2022/10/18 03:23:48;;;;;;;8.93;4.47;;;;;;;16.83;62.65;102947.69;5130621;27;20020;-84
2022/10/18 03:26:13;;;;;;;5.22;4.07;;;;;;;16.91;62.74;102979.84;5125548;27;20100;-84
2022/10/18 03:28:39;;;;;;;6.47;4.60;;;;;;;16.86;62.67;102956.69;5107492;28;20027;-84
2022/10/18 03:31:05;;;;;;;5.80;4.13;;;;;;;16.83;63.00;102953.88;5125410;28;20032;-83
2022/10/18 03:33:31;;;;;;;6.30;4.05;;;;;;;16.90;62.70;102968.38;5124113;27;20499;-84
2022/10/18 03:35:57;;;;;;;5.13;4.05;;;;;;;16.89;62.62;102974.47;5123127;27;20039;-84
2022/10/18 03:38:22;;;;;;;4.97;3.97;;;;;;;16.94;62.70;102980.03;5118952;27;20079;-83
2022/10/18 03:40:48;;;;;;;6.65;4.53;;;;;;;16.72;62.39;102938.13;5119810;27;20803;-83
2022/10/18 03:43:14;;;;;;;4.90;3.97;;;;;;;16.97;62.56;102981.13;5131274;27;20039;-83
2022/10/18 03:45:39;;;;;;;5.32;4.20;;;;;;;16.96;62.45;102976.69;5139808;27;20100;-84
2022/10/18 03:48:05;;;;;;;5.00;3.72;;;;;;;16.85;62.59;102967.19;5134999;27;20028;-83
2022/10/18 03:50:31;;;;;;;4.70;4.07;;;;;;;16.69;62.72;102955.59;5129722;27;20037;-83
2022/10/18 03:52:56;;;;;;;4.78;3.92;;;;;;;16.86;62.53;102953.16;5133603;27;20494;-83
2022/10/18 03:55:22;;;;;;;5.10;3.95;;;;;;;16.68;62.74;102934.41;5129250;27;20544;-83
2022/10/18 03:57:48;;;;;;;5.68;3.85;;;;;;;16.92;62.61;102977.31;5121046;27;20393;-84
2022/10/18 04:00:14;;;;;;;4.57;3.97;;;;;;;16.77;62.71;102955.19;5123717;27;20388;-83
2022/10/18 04:02:40;;;;;;;6.63;4.05;;;;;;;16.77;62.74;102963.09;5127797;27;20026;-84
2022/10/18 04:05:06;;;;;;;5.18;4.07;;;;;;;16.79;62.33;102945.66;5120992;27;20174;-84
2022/10/18 04:07:32;;;;;;;;;;;;;;;16.92;62.78;102979.94;5120474;27;20019;-84
2022/10/18 04:09:57;;;;;;;6.28;3.67;;;;;;;16.88;62.75;102973.53;5117991;27;19922;-84
2022/10/18 04:12:23;;;;;;;5.70;4.15;;;;;;;16.79;62.66;102969.38;5132440;27;20416;-85
2022/10/18 04:14:48;;;;;;;5.10;3.67;;;;;;;16.88;62.72;102975.28;5134144;27;20031;-85
2022/10/18 04:17:14;;;;;;;4.10;3.67;;;;;;;16.72;62.76;102946.03;5123899;27;20050;-85
2022/10/18 04:19:40;;;;;;;5.35;3.85;;;;;;;16.69;62.66;102942.41;5132919;27;20023;-85
2022/10/18 04:22:07;;;;;;;4.50;3.75;;;;;;;16.80;62.71;102960.66;5128033;27;20023;-86
2022/10/18 04:24:32;;;;;;;6.03;4.10;;;;;;;16.53;62.81;102910.59;5126070;27;20035;-85
2022/10/18 04:26:58;;;;;;;3.85;3.50;;;;;;;16.87;62.67;102971.72;5125611;27;20408;-85
2022/10/18 04:29:23;;;;;;;5.90;3.50;;;;;;;16.77;62.66;102953.44;5128817;27;20039;-85
2022/10/18 04:31:49;;;;;;;5.30;3.90;;;;;;;16.85;62.61;102964.53;5132532;27;20038;-84
2022/10/18 04:34:14;;;;;;;9.20;4.18;;;;;;;16.75;62.28;102939.25;5131488;27;20035;-83
2022/10/18 04:36:40;;;;;;;7.00;3.60;;;;;;;16.64;62.61;102924.47;5133655;27;20019;-83
2022/10/18 04:39:06;;;;;;;4.63;4.20;;;;;;;16.85;62.70;102962.81;5097613;27;20050;-83
2022/10/18 04:41:31;;;;;;;6.68;4.25;;;;;;;16.65;62.64;102929.81;5129340;27;20026;-83
2022/10/18 04:43:57;;;;;;;5.15;3.70;;;;;;;16.85;62.75;102970.72;5128665;27;20381;-83
2022/10/18 04:46:22;;;;;;;4.03;3.63;;;;;;;16.90;62.61;102965.72;5128890;27;20537;-83
2022/10/18 04:48:48;;;;;;;6.88;3.70;;;;;;;16.85;62.80;102967.19;5128783;27;20067;-83
2022/10/18 04:51:13;;;;;;;4.38;3.92;;;;;;;16.85;62.58;102961.91;5120428;27;20023;-84
2022/10/18 04:53:39;;;;;;;5.60;4.20;;;;;;;16.81;62.82;102959.88;5133273;27;20027;-83
2022/10/18 04:56:05;;;;;;;4.70;3.67;;;;;;;16.89;62.52;102971.84;5129754;27;20278;-81
2022/10/18 04:58:31;;;;;;;4.68;3.90;;;;;;;16.77;62.45;102948.19;5127342;27;20031;-83
2022/10/18 05:00:56;;;;;;;;;;;;;;;16.88;62.70;102970.00;5127970;27;20039;-83
2022/10/18 05:03:22;;;;;;;5.30;3.75;;;;;;;16.79;62.76;102951.81;5117549;27;19919;-83
2022/10/18 05:05:48;;;;;;;5.40;3.78;;;;;;;16.85;62.62;102959.25;5130950;27;20027;-82
2022/10/18 05:08:13;;;;;;;5.85;3.85;;;;;;;16.92;62.49;102961.47;5127062;27;20093;-83
2022/10/18 05:10:39;;;;;;;5.25;3.95;;;;;;;16.77;62.48;102937.63;5129012;27;20658;-82
2022/10/18 05:13:05;;;;;;;6.28;3.70;;;;;;;16.76;62.37;102925.22;5125825;27;20062;-83
2022/10/18 05:15:30;;;;;;;5.47;3.90;;;;;;;16.75;62.75;102931.34;5129218;27;20396;-83
2022/10/18 05:17:56;;;;;;;6.03;3.80;;;;;;;16.91;62.49;102956.06;5126550;27;20526;-83
2022/10/18 05:20:21;;;;;;;4.43;3.70;;;;;;;16.75;62.61;102940.97;5127176;27;20027;-83
2022/10/18 05:22:47;;;;;;;4.95;3.83;;;;;;;16.86;62.60;102961.06;5124893;27;20030;-82
2022/10/18 05:25:13;;;;;;;5.55;3.63;;;;;;;16.53;62.55;102900.03;5104267;27;20451;-86
2022/10/18 05:27:38;;;;;;;5.07;3.83;;;;;;;16.88;62.46;102941.88;5132705;27;20023;-86
2022/10/18 05:30:04;;;;;;;5.53;4.03;;;;;;;16.77;62.53;102934.06;5112740;28;20059;-85
2022/10/18 05:32:30;;;;;;;5.88;3.97;;;;;;;16.75;62.45;102927.78;5129226;27;20411;-85
2022/10/18 05:34:55;;;;;;;5.82;4.20;;;;;;;16.71;62.67;102937.22;5120391;27;20031;-85
2022/10/18 05:37:21;;;;;;;4.93;3.80;;;;;;;16.84;62.49;102965.34;5123560;27;20069;-86
2022/10/18 05:39:46;;;;;;;5.70;3.80;;;;;;;16.59;62.56;102918.88;5110634;27;20082;-88
2022/10/18 05:42:12;;;;;;;7.65;4.38;;;;;;;16.77;62.43;102939.34;5111427;27;20107;-89
2022/10/18 05:44:40;;;;;;;5.32;4.00;;;;;;;16.74;62.21;102926.84;5113500;27;20564;-89
2022/10/18 05:47:05;;;;;;;6.38;4.00;;;;;;;16.78;62.39;102946.44;5105367;28;20042;-88
2022/10/18 05:49:31;;;;;;;5.85;4.03;;;;;;;16.84;62.28;102944.22;5109546;28;20023;-87
2022/10/18 05:51:56;;;;;;;5.85;3.78;;;;;;;16.75;62.49;102941.88;5126649;27;20051;-86
2022/10/18 05:54:22;;;;;;;5.18;4.18;;;;;;;16.89;62.25;102956.91;5129935;27;20504;-86
2022/10/18 05:56:48;;;;;;;5.45;3.85;;;;;;;16.57;62.32;102902.03;5127184;27;20027;-86
2022/10/18 05:59:13;;;;;;;6.07;4.00;;;;;;;16.55;62.39;102902.75;5129727;27;20119;-87
2022/10/18 06:01:41;;;;;;;4.82;4.00;;;;;;;16.74;62.26;102920.66;5129302;27;20023;-87
2022/10/18 06:04:09;;;;;;;5.47;3.88;;;;;;;16.96;62.53;102984.59;5110586;27;20029;-85
2022/10/18 06:06:35;;;;;;;5.68;3.90;;;;;;;16.58;62.51;102903.88;5127187;27;20108;-86
2022/10/18 06:09:02;;;;;;;4.88;3.65;;;;;;;16.74;62.50;102924.22;5124957;27;20118;-87
2022/10/18 06:11:28;;;;;;;7.18;3.60;;;;;;;16.78;62.52;102931.50;5127550;27;20035;-85
2022/10/18 06:13:56;;;;;;;4.78;3.40;;;;;;;16.72;62.35;102915.31;5130025;27;20076;-87
2022/10/18 06:16:22;;;;;;;4.70;3.58;;;;;;;16.61;62.61;102909.34;5128448;27;20019;-87
2022/10/18 06:18:53;;;;;;;7.35;3.88;;;;;;;16.61;62.15;102908.44;5125906;27;20029;-87
2022/10/18 06:21:21;;;;;;;4.57;3.58;;;;;;;16.92;62.33;102947.34;5130706;27;20031;-87
2022/10/18 06:23:54;;;;;;;6.00;4.10;;;;;;;16.73;62.35;102922.41;5127260;27;20048;-86
2022/10/18 06:26:20;;;;;;;4.40;3.80;;;;;;;16.93;62.42;102959.72;5122737;27;20446;-86
2022/10/18 06:28:46;;;;;;;5.05;3.90;;;;;;;16.62;62.62;102915.53;5111949;27;20039;-87
2022/10/18 06:31:12;;;;;;;5.40;3.63;;;;;;;16.58;62.63;102911.78;5126080;27;20512;-86
2022/10/18 06:33:38;;;;;;;;;;;;;;;16.96;62.79;102970.50;5130245;27;20058;-87
2022/10/18 06:36:04;;;;;;;5.95;3.80;;;;;;;16.95;62.85;102974.84;5116148;27;20288;-88
2022/10/18 06:38:31;;;;;;;5.57;3.80;;;;;;;16.98;62.44;102980.31;5122583;27;20104;-87
2022/10/18 06:40:57;;;;;;;5.82;3.60;;;;;;;16.79;62.63;102954.47;5103933;28;20031;-87
2022/10/18 06:43:23;;;;;;;5.50;3.58;;;;;;;16.89;63.04;102974.47;5129732;27;20056;-88
2022/10/18 06:45:53;;;;;;;5.63;3.70;;;;;;;16.87;63.01;102984.03;5125317;27;20024;-85
2022/10/18 06:48:19;;;;;;;5.25;3.80;;;;;;;16.60;62.95;102933.91;5121631;27;20050;-85
2022/10/18 06:50:55;;;;;;;5.10;3.35;;;;;;;16.80;63.03;102950.09;5123357;27;20089;-86
2022/10/18 06:53:22;;;;;;;5.05;3.67;;;;;;;16.68;63.15;102948.50;5129317;27;20130;-86
2022/10/18 06:55:48;;;;;;;5.75;3.90;;;;;;;16.79;63.17;102953.56;5118947;28;20020;-87
2022/10/18 06:58:14;;;;;;;4.13;3.70;;;;;;;16.74;62.93;102936.50;5126844;28;20583;-87
2022/10/18 07:00:39;;;;;;;4.72;3.75;;;;;;;16.73;63.00;102935.59;5130587;27;20034;-87
2022/10/18 07:03:05;;;;;;;5.95;3.38;;;;;;;16.85;62.98;102959.25;5131957;27;20151;-88
2022/10/18 07:05:31;;;;;;;4.65;3.75;;;;;;;16.79;63.10;102941.28;5130185;28;20110;-88
2022/10/18 07:07:57;;;;;;;5.53;4.13;;;;;;;16.86;63.10;102961.97;5114496;28;20031;-87
2022/10/18 07:10:24;;;;;;;4.22;3.53;;;;;;;16.94;63.07;102961.56;5130383;27;20039;-86
2022/10/18 07:12:49;;;;;;;5.75;3.53;;;;;;;16.61;63.10;102908.44;5112331;27;20389;-87
2022/10/18 07:15:16;;;;;;;4.72;3.75;;;;;;;16.76;63.09;102935.78;5114466;28;20524;-87
2022/10/18 07:17:46;;;;;;;4.25;3.25;;;;;;;16.92;63.06;102950.91;5121149;27;20027;-87
2022/10/18 07:20:12;;;;;;;5.30;3.72;;;;;;;16.80;63.09;102936.91;5128461;27;20027;-86
2022/10/18 07:22:38;;;;;;;5.07;3.47;;;;;;;16.78;63.37;102935.88;5130165;27;20035;-88
2022/10/18 07:25:05;;;;;;;3.45;3.15;;;;;;;16.79;63.22;102936.00;5128327;27;20488;-85
2022/10/18 07:27:38;;;;;;;5.82;3.53;;;;;;;16.78;63.30;102934.16;5128580;27;20051;-87
2022/10/18 07:30:05;;;;;;;4.75;3.33;;;;;;;16.59;63.17;102892.50;5124054;27;20109;-86
2022/10/18 07:32:31;;;;;;;4.97;3.47;;;;;;;16.82;63.16;102927.38;5111766;28;20024;-87
2022/10/18 07:34:57;;;;;;;6.30;3.47;;;;;;;16.67;63.28;102907.09;5117144;27;20032;-87
2022/10/18 07:37:22;;;;;;;4.97;3.47;;;;;;;16.75;63.16;102919.88;5116730;27;20035;-86
2022/10/18 07:39:48;;;;;;;4.65;3.47;;;;;;;16.65;63.14;102900.78;5113078;28;20042;-86
2022/10/18 07:42:13;;;;;;;5.80;3.70;;;;;;;16.47;63.48;102878.56;5129129;27;20035;-86
2022/10/18 07:44:39;;;;;;;5.05;3.58;;;;;;;16.63;64.06;102918.25;5132950;27;20015;-86
2022/10/18 07:47:04;;;;;;;6.32;3.80;;;;;;;16.64;63.51;102908.66;5132239;27;20480;-86
2022/10/18 07:49:30;;;;;;;3.92;3.00;;;;;;;16.81;63.72;102939.66;5134160;27;20114;-86
2022/10/18 07:51:56;;;;;;;5.35;3.42;;;;;;;16.28;64.10;102853.63;5134937;27;20564;-86
2022/10/18 07:54:21;;;;;;;5.22;3.33;;;;;;;16.64;63.92;102911.28;5132709;27;20076;-87
2022/10/18 07:56:47;;;;;;;7.05;3.53;;;;;;;16.10;65.02;102852.44;5118053;27;20016;-86
2022/10/18 07:59:12;;;;;;;4.72;3.67;;;;;;;16.30;65.28;102880.09;5133658;27;20042;-87
2022/10/18 08:01:38;;;;;;;5.88;3.33;;;;;;;16.31;65.41;102896.84;5132704;27;20011;-87
2022/10/18 08:04:04;;;;;;;5.35;3.67;;;;;;;16.17;64.84;102837.94;5111588;27;20031;-87
2022/10/18 08:06:30;;;;;;;4.28;3.22;;;;;;;16.71;64.58;102929.31;5127941;27;20023;-88
2022/10/18 08:08:55;;;;;;;6.50;3.50;;;;;;;16.32;64.50;102860.03;5107666;27;20035;-87
2022/10/18 08:11:23;;;;;;;3.97;3.50;;;;;;;16.69;65.06;102931.84;5124350;27;20603;-86
2022/10/18 08:13:50;;;;;;;4.38;3.33;;;;;;;16.74;64.52;102932.13;5128555;27;20407;-87
2022/10/18 08:16:20;;;;;;;;;;;;;;;16.76;64.32;102930.50;5113499;27;20377;-87
2022/10/18 08:18:46;;;;;;;5.90;3.45;;;;;;;16.59;64.64;102907.41;5129595;27;20025;-86
2022/10/18 08:21:14;;;;;;;4.93;3.35;;;;;;;16.31;65.00;102873.09;5108713;27;20028;-87
2022/10/18 08:23:40;;;;;;;4.05;3.00;;;;;;;16.42;64.37;102885.25;5131016;27;20106;-87
2022/10/18 08:26:10;;;;;;;;;;;;;;;16.80;64.59;102927.28;5128787;27;20028;-86
2022/10/18 08:28:35;;;;;;;4.68;2.95;;;;;;;16.78;64.87;102922.69;5125377;27;19918;-86
2022/10/18 08:31:03;;;;;;;5.72;3.58;;;;;;;16.74;64.48;102918.03;5134097;27;20024;-86
2022/10/18 08:33:28;;;;;;;4.50;3.55;;;;;;;16.42;64.45;102850.94;5132976;27;20118;-87
2022/10/18 08:35:58;;;;;;;5.15;3.58;;;;;;;16.79;64.17;102921.88;5134798;27;20023;-86
2022/10/18 08:38:24;;;;;;;6.78;4.07;;;;;;;16.65;64.82;102900.78;5130886;27;20031;-84
2022/10/18 08:40:50;;;;;;;5.18;3.92;;;;;;;16.74;64.80;102912.75;5131326;27;20027;-84
2022/10/18 08:43:31;;;;;;;5.82;3.60;;;;;;;16.68;64.78;102905.38;5124258;27;20039;-84
2022/10/18 08:45:57;;;;;;;4.97;3.60;;;;;;;16.44;65.05;102854.59;5127129;27;20031;-84
2022/10/18 08:48:34;;;;;;;5.28;3.35;;;;;;;16.63;64.87;102886.59;5120143;27;20049;-84
2022/10/18 08:51:00;;;;;;;4.00;3.40;;;;;;;16.64;64.58;102875.25;5131626;27;20031;-85
2022/10/18 08:53:31;;;;;;;4.50;3.47;;;;;;;16.75;64.49;102888.22;5131925;27;20126;-84
2022/10/18 08:56:13;;;;;;;5.55;3.70;;;;;;;16.65;64.57;102860.31;5122095;27;20038;-85
2022/10/18 08:58:41;;;;;;;3.50;3.20;;;;;;;16.59;64.35;102855.56;5126732;27;20023;-84
2022/10/18 09:01:18;;;;;;;4.57;3.20;;;;;;;16.84;64.32;102883.53;5122042;27;20058;-84
2022/10/18 09:04:13;;;;;;;;;;;;;;;16.84;64.55;102880.88;5126694;27;20031;-84
2022/10/18 09:06:38;;;;;;;4.47;3.15;;;;;;;16.82;64.67;102877.25;5059422;27;19920;-84
2022/10/18 09:09:46;;;;;;;4.70;3.42;;;;;;;16.79;64.85;102885.84;5132430;27;20027;-85
2022/10/18 09:12:42;;;;;;;7.00;3.45;;;;;;;16.85;64.62;102874.81;5082709;28;20043;-85
2022/10/18 09:15:20;;;;;;;4.78;3.28;;;;;;;16.84;64.55;102879.16;5123053;27;20397;-85
2022/10/18 09:18:09;;;;;;;4.75;3.63;;;;;;;16.78;64.75;102873.47;5121874;27;20559;-85
2022/10/18 09:20:56;;;;;;;4.38;3.30;;;;;;;16.37;64.78;102799.66;5124894;27;20038;-85
2022/10/18 09:23:25;;;;;;;4.43;3.55;;;;;;;16.76;64.50;102859.25;5125439;27;20040;-85
2022/10/18 09:26:16;;;;;;;7.35;3.97;;;;;;;16.75;64.57;102853.91;5119527;27;20023;-85
2022/10/18 09:28:44;;;;;;;4.75;3.25;;;;;;;16.80;64.64;102856.03;5128033;27;20058;-84
2022/10/18 09:31:10;;;;;;;5.03;3.50;;;;;;;16.82;64.58;102867.59;5125839;27;20034;-86
2022/10/18 09:33:56;;;;;;;4.57;3.47;;;;;;;16.89;64.43;102866.28;5132907;27;20118;-85
2022/10/18 09:36:29;;;;;;;5.30;3.72;;;;;;;16.61;65.02;102835.47;5145075;27;20092;-84
2022/10/18 09:38:58;;;;;;;4.28;3.55;;;;;;;16.81;65.18;102872.78;5127495;27;20039;-84
2022/10/18 09:41:26;;;;;;;5.75;3.53;;;;;;;16.76;65.13;102861.00;5132078;27;20087;-85
2022/10/18 09:44:13;;;;;;;5.00;3.55;;;;;;;16.75;65.29;102861.81;5132694;27;20049;-84
2022/10/18 09:46:44;;;;;;;4.38;3.63;;;;;;;16.81;64.85;102854.31;5122656;27;20034;-84
2022/10/18 09:49:21;;;;;;;5.38;3.20;;;;;;;16.78;65.31;102852.34;5132714;27;20031;-84
2022/10/18 09:51:47;;;;;;;6.43;3.13;;;;;;;16.57;65.86;102835.19;5131684;27;20095;-84
2022/10/18 09:54:23;;;;;;;4.53;3.25;;;;;;;16.74;65.49;102849.44;5117455;27;20022;-84
2022/10/18 09:56:53;;;;;;;4.53;3.22;;;;;;;16.69;65.16;102834.22;5124082;27;20102;-84
2022/10/18 09:59:34;;;;;;;5.28;3.30;;;;;;;16.79;65.36;102841.00;5127173;27;20015;-83
2022/10/18 10:02:00;;;;;;;3.88;3.10;;;;;;;16.64;65.17;102821.59;5132006;27;20046;-86
2022/10/18 10:04:25;;;;;;;6.60;2.95;;;;;;;16.68;65.66;102823.59;5121059;27;20467;-86
2022/10/18 10:06:53;;;;;;;4.15;3.15;;;;;;;16.63;65.82;102819.75;5121695;27;20091;-85
2022/10/18 10:09:30;;;;;;;3.55;3.05;;;;;;;16.64;65.64;102813.66;5130687;27;20063;-86
2022/10/18 10:11:57;;;;;;;6.75;3.20;;;;;;;16.73;66.92;102821.22;5118151;27;20408;-84
2022/10/18 10:14:26;;;;;;;;;;;;;;;16.96;66.77;102820.94;5123580;27;20036;-83
2022/10/18 10:17:03;;;;;;;6.40;3.05;;;;;;;16.86;66.06;102805.38;5116297;27;19921;-83
2022/10/18 10:19:36;;;;;;;6.15;3.22;;;;;;;16.87;65.97;102812.47;5122446;27;20027;-85
2022/10/18 10:22:09;;;;;;;8.00;3.17;;;;;;;16.60;66.17;102775.63;5130286;27;20023;-85
2022/10/18 10:24:52;;;;;;;6.05;3.08;;;;;;;16.64;66.27;102780.28;5130666;27;20111;-83
2022/10/18 10:27:42;;;;;;;6.88;3.22;;;;;;;16.77;65.96;102808.31;5119291;27;20098;-82
2022/10/18 10:30:28;;;;;;;3.25;2.90;;;;;;;16.77;66.10;102804.78;5129827;27;20079;-82
2022/10/18 10:32:54;;;;;;;6.82;3.38;;;;;;;16.76;66.16;102800.31;5118438;27;20110;-82
2022/10/18 10:35:28;;;;;;;5.63;3.30;;;;;;;16.67;66.23;102780.44;5118392;27;20030;-81
2022/10/18 10:37:53;;;;;;;5.47;2.95;;;;;;;16.69;66.78;102792.00;5119175;27;20027;-82
2022/10/18 10:40:22;;;;;;;6.53;3.47;;;;;;;16.69;66.81;102781.44;5131856;27;20412;-84
2022/10/18 10:43:15;;;;;;;4.85;3.30;;;;;;;16.78;66.32;102781.09;5115462;27;20055;-83
2022/10/18 10:46:00;;;;;;;6.78;2.78;;;;;;;16.75;66.53;102769.47;5129983;27;20019;-83
2022/10/18 10:48:27;;;;;;;4.15;2.83;;;;;;;16.76;66.75;102772.19;5110234;28;20496;-83
2022/10/18 10:51:01;;;;;;;4.32;2.97;;;;;;;16.73;66.24;102769.38;5127476;27;20046;-83
2022/10/18 10:53:35;;;;;;;4.50;2.83;;;;;;;16.87;65.86;102765.88;5131409;27;20054;-83
2022/10/18 10:56:03;;;;;;;5.60;2.80;;;;;;;16.77;66.27;102762.56;5124119;27;20045;-83
2022/10/18 10:58:35;;;;;;;4.22;2.97;;;;;;;16.69;66.29;102744.50;5119135;28;20034;-85
2022/10/18 11:01:35;;;;;;;5.35;3.15;;;;;;;16.82;66.13;102756.75;5129675;27;20107;-82
2022/10/18 11:04:22;;;;;;;4.82;2.95;;;;;;;16.79;66.44;102758.28;5123788;28;20083;-82
2022/10/18 11:06:52;;;;;;;3.55;2.60;;;;;;;16.75;66.30;102741.34;5117196;28;20019;-83
2022/10/18 11:09:25;;;;;;;6.43;3.08;;;;;;;16.76;66.24;102734.34;5131395;27;20031;-83
2022/10/18 11:12:01;;;;;;;4.93;3.17;;;;;;;16.71;66.72;102723.50;5096359;28;20031;-83
2022/10/18 11:14:31;;;;;;;4.05;2.67;;;;;;;16.83;66.49;102732.22;5111061;28;20139;-83
2022/10/18 11:17:21;;;;;;;3.30;2.85;;;;;;;16.80;66.11;102737.28;5123380;28;20181;-83
2022/10/18 11:20:05;;;;;;;6.88;2.88;;;;;;;16.85;65.82;102727.03;5126811;28;20118;-83
2022/10/18 11:22:35;;;;;;;5.38;2.97;;;;;;;16.82;66.80;102724.19;5120550;28;20547;-82
2022/10/18 11:25:03;;;;;;;4.57;2.80;;;;;;;16.76;66.46;102719.41;5127108;28;20021;-83
2022/10/18 11:27:35;;;;;;;3.80;2.95;;;;;;;16.74;66.47;102702.56;5130779;28;20019;-82
2022/10/18 11:30:16;;;;;;;5.90;2.95;;;;;;;16.72;66.89;102708.59;5131139;27;20023;-83
2022/10/18 11:33:11;;;;;;;6.80;2.95;;;;;;;16.79;66.87;102706.41;5111515;28;20469;-82
2022/10/18 11:35:47;;;;;;;4.82;2.78;;;;;;;16.74;66.67;102692.03;5110740;28;20056;-83
2022/10/18 11:38:24;;;;;;;4.47;2.97;;;;;;;16.60;66.96;102670.09;5111223;28;20085;-84